Time;durP1;ratioP1;P1;durP2;ratioP2;P2;SDS_P1;SDS_P2;PMS_P1;PMS_P2;Temp;Humidity;BMP_temperature;BMP_pressure;BME280_temperature;BME280_humidity;BME280_pressure;Samples;Min_cycle;Max_cycle;Signal;HPM_P1;HPM_P2
2022/07/20 00:01:36;;;;;;;5.32;3.20;;;;;;;;;;4889035;29;20129;-75
2022/07/20 00:04:03;;;;;;;6.47;3.08;;;;;;;;;;4886536;29;20052;-74
2022/07/20 00:06:29;;;;;;;6.43;3.33;;;;;;;;;;4890116;29;20471;-74
2022/07/20 00:11:39;;;;;;;7.47;3.25;;;;;;;;;;4887888;29;20053;-75
2022/07/20 00:14:05;;;;;;;6.65;3.00;;;;;;;;;;4885871;29;20041;-74
2022/07/20 00:16:33;;;;;;;7.47;3.17;;;;;;;;;;4888281;29;20072;-75
2022/07/20 00:18:59;;;;;;;6.68;3.22;;;;;;;;;;4884781;29;20067;-79
2022/07/20 00:21:25;;;;;;;4.25;3.15;;;;;;;;;;4887888;29;20045;-77
2022/07/20 00:23:51;;;;;;;9.10;3.60;;;;;;;;;;4886565;29;20692;-75
2022/07/20 00:26:17;;;;;;;7.28;3.22;;;;;;;;;;4878380;29;20060;-74
2022/07/20 00:28:43;;;;;;;5.55;3.30;;;;;;;;;;4888959;29;20525;-74
2022/07/20 00:31:09;;;;;;;7.18;3.35;;;;;;;;;;4888535;29;20175;-74
2022/07/20 00:33:35;;;;;;;3.85;3.08;;;;;;;;;;4884779;29;20060;-80
2022/07/20 00:36:02;;;;;;;8.32;3.67;;;;;;;;;;4890113;29;20562;-74
2022/07/20 00:38:28;;;;;;;12.40;3.50;;;;;;;;;;4889393;29;20104;-75
2022/07/20 00:40:54;;;;;;;8.63;3.97;;;;;;;;;;4879562;29;20048;-76
2022/07/20 00:43:20;;;;;;;11.88;3.47;;;;;;;;;;4885945;29;20451;-75
2022/07/20 00:45:45;;;;;;;8.35;3.47;;;;;;;;;;4879372;29;20727;-74
2022/07/20 00:48:12;;;;;;;9.57;3.83;;;;;;;;;;4884609;29;20067;-73
2022/07/20 00:50:38;;;;;;;8.80;3.90;;;;;;;;;;4890732;29;20154;-72
2022/07/20 00:53:04;;;;;;;10.45;3.80;;;;;;;;;;4890397;29;20063;-75
2022/07/20 00:55:30;;;;;;;8.05;3.70;;;;;;;;;;4891502;29;20056;-74
2022/07/20 00:57:56;;;;;;;8.85;3.67;;;;;;;;;;4889628;29;20048;-73
2022/07/20 01:00:22;;;;;;;9.40;3.83;;;;;;;;;;4892820;29;20054;-72
2022/07/20 01:02:48;;;;;;;7.03;3.50;;;;;;;;;;4888388;29;20063;-73
2022/07/20 01:05:14;;;;;;;10.98;3.78;;;;;;;;;;4885143;29;20056;-76
2022/07/20 01:07:42;;;;;;;8.70;3.55;;;;;;;;;;4890083;29;20083;-73
2022/07/20 01:10:08;;;;;;;6.47;3.47;;;;;;;;;;4889823;29;20048;-72
2022/07/20 01:12:37;;;;;;;7.95;3.50;;;;;;;;;;4883991;29;20487;-74
2022/07/20 01:15:03;;;;;;;9.77;3.83;;;;;;;;;;4890656;29;20517;-72
2022/07/20 01:17:29;;;;;;;8.18;3.83;;;;;;;;;;4888675;29;20550;-74
2022/07/20 01:19:55;;;;;;;12.23;3.70;;;;;;;;;;4891042;29;20061;-74
2022/07/20 01:22:21;;;;;;;9.73;3.85;;;;;;;;;;4889871;29;20056;-75
2022/07/20 01:24:47;;;;;;;9.25;3.92;;;;;;;;;;4890262;29;20048;-76
2022/07/20 01:27:12;;;;;;;10.48;3.90;;;;;;;;;;4889369;29;20107;-74
2022/07/20 01:29:38;;;;;;;6.05;3.80;;;;;;;;;;4889604;29;20048;-75
2022/07/20 01:32:04;;;;;;;8.23;3.60;;;;;;;;;;4887333;29;20091;-76
2022/07/20 01:34:30;;;;;;;8.25;3.63;;;;;;;;;;4886368;29;20047;-75
2022/07/20 01:36:56;;;;;;;8.73;4.30;;;;;;;;;;4889211;29;20045;-73
2022/07/20 01:39:22;;;;;;;10.90;4.30;;;;;;;;;;4890652;29;20056;-73
2022/07/20 01:41:52;;;;;;;10.73;3.75;;;;;;;;;;4887708;29;20051;-74
2022/07/20 01:44:22;;;;;;;11.35;3.85;;;;;;;;;;4886074;29;20095;-75
2022/07/20 01:46:52;;;;;;;9.55;4.05;;;;;;;;;;4888097;29;20060;-73
2022/07/20 01:49:20;;;;;;;11.75;4.10;;;;;;;;;;4884797;29;20608;-75
2022/07/20 01:51:46;;;;;;;8.85;4.30;;;;;;;;;;4889004;29;20064;-74
2022/07/20 01:54:12;;;;;;;9.80;4.00;;;;;;;;;;4887037;29;20088;-72
2022/07/20 01:56:42;;;;;;;7.82;4.00;;;;;;;;;;4887979;29;20048;-74
2022/07/20 01:59:08;;;;;;;9.73;3.97;;;;;;;;;;4887523;29;20048;-74
2022/07/20 02:01:34;;;;;;;12.02;4.20;;;;;;;;;;4887309;29;20059;-75
2022/07/20 02:04:00;;;;;;;13.30;4.32;;;;;;;;;;4886325;29;20048;-74
2022/07/20 02:06:26;;;;;;;5.65;3.63;;;;;;;;;;4884984;29;20067;-73
2022/07/20 02:08:52;;;;;;;14.30;4.32;;;;;;;;;;4887463;29;20659;-72
2022/07/20 02:11:17;;;;;;;9.75;4.00;;;;;;;;;;4887494;29;20147;-74
2022/07/20 02:13:43;;;;;;;10.27;4.30;;;;;;;;;;4886720;29;20797;-73
2022/07/20 02:16:15;;;;;;;11.38;3.92;;;;;;;;;;4887230;29;20048;-74
2022/07/20 02:18:42;;;;;;;8.35;3.90;;;;;;;;;;4888087;29;20060;-73
2022/07/20 02:21:08;;;;;;;12.60;4.55;;;;;;;;;;4871855;29;20055;-74
2022/07/20 02:23:34;;;;;;;11.77;4.32;;;;;;;;;;4887440;29;20085;-74
2022/07/20 02:26:00;;;;;;;11.15;4.18;;;;;;;;;;4884347;29;20053;-73
2022/07/20 02:28:25;;;;;;;6.80;4.20;;;;;;;;;;4858371;29;20044;-74
2022/07/20 02:30:51;;;;;;;6.45;4.18;;;;;;;;;;4883165;29;20065;-73
2022/07/20 02:33:17;;;;;;;8.00;4.10;;;;;;;;;;4891474;29;20131;-73
2022/07/20 02:35:43;;;;;;;8.95;4.20;;;;;;;;;;4889111;29;20056;-73
2022/07/20 02:38:09;;;;;;;8.10;4.15;;;;;;;;;;4889818;29;20076;-74
2022/07/20 02:40:35;;;;;;;9.38;3.75;;;;;;;;;;4891382;29;20057;-73
2022/07/20 02:43:01;;;;;;;12.68;4.35;;;;;;;;;;4890296;29;20123;-74
2022/07/20 02:45:27;;;;;;;10.05;4.10;;;;;;;;;;4891537;29;20052;-74
2022/07/20 02:47:54;;;;;;;8.52;3.85;;;;;;;;;;4871812;29;20055;-73
2022/07/20 02:50:20;;;;;;;8.93;4.20;;;;;;;;;;4889678;29;20474;-72
2022/07/20 02:52:46;;;;;;;7.38;3.90;;;;;;;;;;4889133;29;20056;-75
2022/07/20 02:55:13;;;;;;;10.05;4.05;;;;;;;;;;4892365;29;20132;-74
2022/07/20 02:57:39;;;;;;;7.13;3.83;;;;;;;;;;4890681;29;20108;-73
2022/07/20 03:00:06;;;;;;;9.77;4.35;;;;;;;;;;4889780;29;20044;-73
2022/07/20 03:02:33;;;;;;;13.43;3.88;;;;;;;;;;4888037;29;20056;-72
2022/07/20 03:04:58;;;;;;;7.13;3.85;;;;;;;;;;4886298;29;20402;-74
2022/07/20 03:07:25;;;;;;;9.15;3.90;;;;;;;;;;4888849;29;20071;-73
2022/07/20 03:09:50;;;;;;;7.53;3.75;;;;;;;;;;4889914;29;20052;-74
2022/07/20 03:12:16;;;;;;;8.93;4.05;;;;;;;;;;4886568;29;20067;-72
2022/07/20 03:14:42;;;;;;;8.43;4.07;;;;;;;;;;4887625;29;20333;-75
2022/07/20 03:17:08;;;;;;;13.07;4.25;;;;;;;;;;4889106;29;20498;-73
2022/07/20 03:19:34;;;;;;;9.75;4.07;;;;;;;;;;4889639;29;20574;-74
2022/07/20 03:22:00;;;;;;;8.43;3.85;;;;;;;;;;4890369;29;20055;-73
2022/07/20 03:24:25;;;;;;;8.90;3.90;;;;;;;;;;4886219;29;20052;-73
2022/07/20 03:26:51;;;;;;;8.65;3.85;;;;;;;;;;4872324;29;20567;-75
2022/07/20 03:29:17;;;;;;;10.38;4.18;;;;;;;;;;4878993;29;20060;-74
2022/07/20 03:31:43;;;;;;;8.00;4.18;;;;;;;;;;4890985;29;21276;-74
2022/07/20 03:34:09;;;;;;;8.05;3.63;;;;;;;;;;4885811;29;20056;-71
2022/07/20 03:36:35;;;;;;;10.73;4.20;;;;;;;;;;4887751;29;20477;-72
2022/07/20 03:39:00;;;;;;;8.68;4.20;;;;;;;;;;4887745;29;20063;-72
2022/07/20 03:41:26;;;;;;;6.93;4.00;;;;;;;;;;4885906;29;20103;-72
2022/07/20 03:43:52;;;;;;;10.20;4.10;;;;;;;;;;4886937;29;20411;-72
2022/07/20 03:46:18;;;;;;;8.88;4.30;;;;;;;;;;4885294;29;20053;-74
2022/07/20 03:48:44;;;;;;;7.75;4.35;;;;;;;;;;4889657;29;20052;-73
2022/07/20 03:51:11;;;;;;;7.53;3.85;;;;;;;;;;4889285;29;20112;-72
2022/07/20 03:53:36;;;;;;;7.65;3.83;;;;;;;;;;4889643;29;20055;-71
2022/07/20 03:56:02;;;;;;;7.63;3.90;;;;;;;;;;4888580;29;20049;-73
2022/07/20 03:58:28;;;;;;;8.20;4.13;;;;;;;;;;4888545;29;20096;-72
2022/07/20 04:00:55;;;;;;;8.70;3.97;;;;;;;;;;4884338;29;20052;-73
2022/07/20 04:03:20;;;;;;;8.75;3.75;;;;;;;;;;4887047;29;20234;-74
2022/07/20 04:05:46;;;;;;;6.82;3.80;;;;;;;;;;4886744;29;20123;-72
2022/07/20 04:08:13;;;;;;;9.63;4.15;;;;;;;;;;4887318;29;20360;-74
2022/07/20 04:10:38;;;;;;;8.30;4.05;;;;;;;;;;4886426;29;20650;-72
2022/07/20 04:13:05;;;;;;;9.85;4.30;;;;;;;;;;4885317;29;20056;-73
2022/07/20 04:15:31;;;;;;;8.80;4.43;;;;;;;;;;4884949;29;20055;-74
2022/07/20 04:17:58;;;;;;;6.22;3.70;;;;;;;;;;4887274;29;20116;-72
2022/07/20 04:20:24;;;;;;;7.07;4.45;;;;;;;;;;4884137;29;20795;-74
2022/07/20 04:22:50;;;;;;;9.85;4.57;;;;;;;;;;4868398;29;20062;-72
2022/07/20 04:25:16;;;;;;;7.35;4.22;;;;;;;;;;4886745;29;20057;-72
2022/07/20 04:27:43;;;;;;;8.98;4.10;;;;;;;;;;4884284;29;20063;-72
2022/07/20 04:30:09;;;;;;;10.40;4.00;;;;;;;;;;4886148;29;20055;-70
2022/07/20 04:32:35;;;;;;;9.75;4.75;;;;;;;;;;4885739;29;20052;-70
2022/07/20 04:35:02;;;;;;;11.15;4.28;;;;;;;;;;4886669;29;20139;-73
2022/07/20 04:37:28;;;;;;;7.65;4.07;;;;;;;;;;4886531;29;20056;-72
2022/07/20 04:39:54;;;;;;;7.35;4.22;;;;;;;;;;4887827;29;20108;-72
2022/07/20 04:42:20;;;;;;;11.38;4.43;;;;;;;;;;4889339;29;20056;-70
2022/07/20 04:44:45;;;;;;;7.13;4.13;;;;;;;;;;4887999;29;20075;-71
2022/07/20 04:47:11;;;;;;;10.73;4.60;;;;;;;;;;4885924;29;20293;-68
2022/07/20 04:49:37;;;;;;;8.48;4.32;;;;;;;;;;4886604;29;20065;-67
2022/07/20 04:52:03;;;;;;;8.30;4.40;;;;;;;;;;4888069;29;20668;-70
2022/07/20 04:54:29;;;;;;;9.90;4.20;;;;;;;;;;4885361;29;20056;-70
2022/07/20 04:56:55;;;;;;;8.18;4.28;;;;;;;;;;4884102;29;20451;-70
2022/07/20 04:59:21;;;;;;;10.43;4.35;;;;;;;;;;4888477;29;20044;-67
2022/07/20 05:01:47;;;;;;;13.60;4.68;;;;;;;;;;4868727;29;20071;-64
2022/07/20 05:04:13;;;;;;;12.90;4.30;;;;;;;;;;4886855;29;20057;-69
2022/07/20 05:06:39;;;;;;;9.23;4.20;;;;;;;;;;4883541;29;20077;-70
2022/07/20 05:09:07;;;;;;;8.90;4.20;;;;;;;;;;4881811;29;20103;-69
2022/07/20 05:11:33;;;;;;;11.27;4.30;;;;;;;;;;4885203;29;20109;-67
2022/07/20 05:13:59;;;;;;;9.10;4.88;;;;;;;;;;4884020;29;20598;-69
2022/07/20 05:16:25;;;;;;;10.18;4.25;;;;;;;;;;4869157;29;20061;-65
2022/07/20 05:18:51;;;;;;;11.00;4.65;;;;;;;;;;4886213;29;20422;-68
2022/07/20 05:21:17;;;;;;;14.27;4.65;;;;;;;;;;4886860;29;20049;-68
2022/07/20 05:23:43;;;;;;;9.30;4.43;;;;;;;;;;4885164;29;20164;-70
2022/07/20 05:26:09;;;;;;;12.07;4.43;;;;;;;;;;4869308;29;20059;-69
2022/07/20 05:28:34;;;;;;;10.35;4.53;;;;;;;;;;4886131;29;20578;-68
2022/07/20 05:31:00;;;;;;;9.27;4.38;;;;;;;;;;4885467;29;20061;-68
2022/07/20 05:33:26;;;;;;;9.98;4.75;;;;;;;;;;4884479;29;20059;-69
2022/07/20 05:35:52;;;;;;;8.98;4.30;;;;;;;;;;4885206;29;20056;-70
2022/07/20 05:38:19;;;;;;;10.43;4.78;;;;;;;;;;4884271;29;20052;-71
2022/07/20 05:40:46;;;;;;;15.25;4.40;;;;;;;;;;4887667;29;20052;-69
2022/07/20 05:43:12;;;;;;;8.18;4.93;;;;;;;;;;4887649;29;20067;-70
2022/07/20 05:45:38;;;;;;;11.40;4.70;;;;;;;;;;4884430;29;20056;-68
2022/07/20 05:48:06;;;;;;;11.65;4.47;;;;;;;;;;4885372;29;20570;-67
2022/07/20 05:50:32;;;;;;;8.63;4.30;;;;;;;;;;4890416;29;20079;-72
2022/07/20 05:52:58;;;;;;;7.90;4.50;;;;;;;;;;4886542;29;20637;-66
2022/07/20 05:55:24;;;;;;;8.32;4.43;;;;;;;;;;4885279;29;20107;-70
2022/07/20 05:57:49;;;;;;;13.82;5.10;;;;;;;;;;4888773;29;20060;-68
2022/07/20 06:00:16;;;;;;;9.80;4.50;;;;;;;;;;4893087;29;20068;-70
2022/07/20 06:02:42;;;;;;;17.38;4.90;;;;;;;;;;4891051;29;20053;-76
2022/07/20 06:05:08;;;;;;;10.95;4.90;;;;;;;;;;4891757;29;20750;-66
2022/07/20 06:07:34;;;;;;;9.13;4.20;;;;;;;;;;4889486;29;20111;-73
2022/07/20 06:10:00;;;;;;;11.90;4.80;;;;;;;;;;4870700;29;20056;-67
2022/07/20 06:12:26;;;;;;;10.93;4.95;;;;;;;;;;4888871;29;20045;-66
2022/07/20 06:14:51;;;;;;;14.55;5.00;;;;;;;;;;4889335;29;20057;-70
2022/07/20 06:17:17;;;;;;;8.98;4.47;;;;;;;;;;4893987;29;20048;-69
2022/07/20 06:19:43;;;;;;;11.38;4.30;;;;;;;;;;4889660;29;20053;-68
2022/07/20 06:22:09;;;;;;;10.65;4.10;;;;;;;;;;4886183;29;20075;-71
2022/07/20 06:24:38;;;;;;;9.52;4.32;;;;;;;;;;4884312;29;20044;-70
2022/07/20 06:27:04;;;;;;;18.30;4.88;;;;;;;;;;4876029;29;20139;-68
2022/07/20 06:29:30;;;;;;;11.63;4.32;;;;;;;;;;4887719;29;20127;-68
2022/07/20 06:31:56;;;;;;;11.85;4.60;;;;;;;;;;4873038;29;21657;-69
2022/07/20 06:34:21;;;;;;;8.88;3.83;;;;;;;;;;4894734;29;20100;-69
2022/07/20 06:36:47;;;;;;;9.52;4.13;;;;;;;;;;4891643;29;20166;-70
2022/07/20 06:39:13;;;;;;;12.27;4.60;;;;;;;;;;4888346;29;20108;-71
2022/07/20 06:41:39;;;;;;;15.55;6.72;;;;;;;;;;4888619;29;20049;-71
2022/07/20 06:44:05;;;;;;;11.40;4.47;;;;;;;;;;4893188;29;20120;-72
2022/07/20 06:46:31;;;;;;;11.15;4.30;;;;;;;;;;4893030;29;20132;-69
2022/07/20 06:48:57;;;;;;;13.07;4.30;;;;;;;;;;4894993;29;20136;-71
2022/07/20 06:51:24;;;;;;;11.10;4.68;;;;;;;;;;4896012;29;20044;-69
2022/07/20 06:53:50;;;;;;;11.77;4.60;;;;;;;;;;4894972;29;20128;-69
2022/07/20 06:56:16;;;;;;;13.88;4.47;;;;;;;;;;4887097;29;20420;-69
2022/07/20 06:58:42;;;;;;;8.93;3.97;;;;;;;;;;4879470;29;20045;-69
2022/07/20 07:01:08;;;;;;;13.57;4.38;;;;;;;;;;4884506;29;20049;-72
2022/07/20 07:03:34;;;;;;;8.20;3.90;;;;;;;;;;4886960;29;20067;-68
2022/07/20 07:06:00;;;;;;;10.02;3.95;;;;;;;;;;4894184;29;20049;-68
2022/07/20 07:08:25;;;;;;;10.43;4.28;;;;;;;;;;4889039;29;20048;-69
2022/07/20 07:10:51;;;;;;;9.20;3.85;;;;;;;;;;4886559;29;20168;-69
2022/07/20 07:13:17;;;;;;;8.80;4.05;;;;;;;;;;4891566;29;20056;-70
2022/07/20 07:15:43;;;;;;;10.13;4.07;;;;;;;;;;4889137;29;20059;-69
2022/07/20 07:18:10;;;;;;;13.00;4.53;;;;;;;;;;4888732;29;20425;-71
2022/07/20 07:20:35;;;;;;;13.65;4.78;;;;;;;;;;4893176;29;20060;-69
2022/07/20 07:23:02;;;;;;;19.83;4.78;;;;;;;;;;4890720;29;20059;-71
2022/07/20 07:25:27;;;;;;;9.10;4.05;;;;;;;;;;4892107;29;20056;-68
2022/07/20 07:27:53;;;;;;;7.65;4.10;;;;;;;;;;4891848;29;20144;-69
2022/07/20 07:30:19;;;;;;;13.43;4.05;;;;;;;;;;4884495;29;20048;-72
2022/07/20 07:32:45;;;;;;;11.85;3.70;;;;;;;;;;4889858;29;20151;-69
2022/07/20 07:35:11;;;;;;;9.70;3.55;;;;;;;;;;4887791;29;20701;-72
2022/07/20 07:37:38;;;;;;;8.63;3.35;;;;;;;;;;4893477;29;20079;-71
2022/07/20 07:40:05;;;;;;;8.77;3.15;;;;;;;;;;4894711;29;20044;-69
2022/07/20 07:42:30;;;;;;;11.70;4.03;;;;;;;;;;4893891;29;20140;-68
2022/07/20 07:44:58;;;;;;;11.00;3.30;;;;;;;;;;4892195;29;20084;-69
2022/07/20 07:47:24;;;;;;;10.20;3.50;;;;;;;;;;4891851;29;20455;-67
2022/07/20 07:49:50;;;;;;;9.30;3.20;;;;;;;;;;4890466;29;20495;-70
2022/07/20 07:52:16;;;;;;;6.70;3.28;;;;;;;;;;4888916;29;20185;-69
2022/07/20 07:54:42;;;;;;;10.05;3.40;;;;;;;;;;4889161;29;20052;-70
2022/07/20 07:57:08;;;;;;;7.70;3.00;;;;;;;;;;4887456;29;20117;-68
2022/07/20 07:59:35;;;;;;;6.18;3.40;;;;;;;;;;4888660;29;20514;-68
2022/07/20 08:02:01;;;;;;;6.72;3.28;;;;;;;;;;4886162;29;20175;-69
2022/07/20 08:04:27;;;;;;;6.97;2.80;;;;;;;;;;4883409;29;20487;-69
2022/07/20 08:06:53;;;;;;;6.15;3.00;;;;;;;;;;4890882;29;20056;-68
2022/07/20 08:09:19;;;;;;;11.10;3.33;;;;;;;;;;4886692;29;20055;-70
2022/07/20 08:11:45;;;;;;;8.65;3.42;;;;;;;;;;4891777;29;20049;-71
2022/07/20 08:14:11;;;;;;;6.82;3.10;;;;;;;;;;4889899;29;20048;-71
2022/07/20 08:16:37;;;;;;;4.55;2.70;;;;;;;;;;4890689;29;20135;-69
2022/07/20 08:19:03;;;;;;;7.57;2.90;;;;;;;;;;4888274;29;20152;-70
2022/07/20 08:21:29;;;;;;;6.68;3.03;;;;;;;;;;4892779;29;20070;-69
2022/07/20 08:23:55;;;;;;;8.43;3.30;;;;;;;;;;4896052;29;20053;-70
2022/07/20 08:26:21;;;;;;;5.55;3.10;;;;;;;;;;4890265;29;20041;-71
2022/07/20 08:28:47;;;;;;;8.35;3.30;;;;;;;;;;4888240;29;20053;-72
2022/07/20 08:31:13;;;;;;;6.10;2.85;;;;;;;;;;4883468;29;20052;-72
2022/07/20 08:33:38;;;;;;;9.80;3.13;;;;;;;;;;4882916;29;20041;-71
2022/07/20 08:36:05;;;;;;;7.78;3.03;;;;;;;;;;4891774;29;20372;-74
2022/07/20 08:38:31;;;;;;;11.02;2.90;;;;;;;;;;4880804;29;20048;-69
2022/07/20 08:40:57;;;;;;;7.75;3.40;;;;;;;;;;4891052;29;20107;-70
2022/07/20 08:43:23;;;;;;;8.90;3.40;;;;;;;;;;4892790;29;20057;-69
2022/07/20 08:45:50;;;;;;;8.90;3.22;;;;;;;;;;4886370;29;20559;-71
2022/07/20 08:48:18;;;;;;;6.80;3.22;;;;;;;;;;4892289;29;20419;-71
2022/07/20 08:50:45;;;;;;;6.28;3.10;;;;;;;;;;4888653;29;20124;-69
2022/07/20 08:53:11;;;;;;;7.50;3.10;;;;;;;;;;4890468;29;20071;-72
2022/07/20 08:55:37;;;;;;;6.60;3.33;;;;;;;;;;4889901;29;20045;-70
2022/07/20 08:58:03;;;;;;;6.95;3.67;;;;;;;;;;4884915;29;20053;-69
2022/07/20 09:00:29;;;;;;;9.07;2.95;;;;;;;;;;4872846;29;20044;-72
2022/07/20 09:02:55;;;;;;;12.05;3.03;;;;;;;;;;4889733;29;20053;-71
2022/07/20 09:05:23;;;;;;;6.88;2.80;;;;;;;;;;4888950;29;20434;-71
2022/07/20 09:07:51;;;;;;;10.55;3.30;;;;;;;;;;4889825;29;20111;-71
2022/07/20 09:10:21;;;;;;;5.60;2.60;;;;;;;;;;4892458;29;20049;-70
2022/07/20 09:12:59;;;;;;;6.20;2.85;;;;;;;;;;4897344;29;20127;-70
2022/07/20 09:15:31;;;;;;;8.95;2.85;;;;;;;;;;4885733;29;20092;-70
2022/07/20 09:18:06;;;;;;;5.85;3.30;;;;;;;;;;4893031;29;20163;-67
2022/07/20 09:20:34;;;;;;;8.45;2.85;;;;;;;;;;4868716;29;20049;-73
2022/07/20 09:23:06;;;;;;;9.20;4.03;;;;;;;;;;4895020;29;20045;-69
2022/07/20 09:25:32;;;;;;;6.72;3.03;;;;;;;;;;4894272;29;20119;-69
2022/07/20 09:27:58;;;;;;;6.45;2.90;;;;;;;;;;4898406;29;20051;-70
2022/07/20 09:30:25;;;;;;;5.35;2.53;;;;;;;;;;4894855;29;20052;-68
2022/07/20 09:33:03;;;;;;;8.55;2.90;;;;;;;;;;4895362;29;20048;-66
2022/07/20 09:35:32;;;;;;;9.43;2.80;;;;;;;;;;4897315;29;20139;-66
2022/07/20 09:38:01;;;;;;;6.30;2.78;;;;;;;;;;4877483;29;20049;-67
2022/07/20 09:40:27;;;;;;;10.02;2.88;;;;;;;;;;4888705;29;20052;-71
2022/07/20 09:42:53;;;;;;;9.25;2.97;;;;;;;;;;4887471;29;20499;-72
2022/07/20 09:45:25;;;;;;;5.57;2.97;;;;;;;;;;4889023;29;20048;-70
2022/07/20 09:48:05;;;;;;;6.60;2.95;;;;;;;;;;4892994;29;20059;-71
2022/07/20 09:50:34;;;;;;;8.82;2.67;;;;;;;;;;4892151;29;20253;-71
2022/07/20 09:53:00;;;;;;;8.48;3.00;;;;;;;;;;4896321;29;20585;-71
2022/07/20 09:55:30;;;;;;;5.55;2.50;;;;;;;;;;4896655;29;20041;-70
2022/07/20 09:57:57;;;;;;;6.63;2.60;;;;;;;;;;4898047;29;20070;-69
2022/07/20 10:00:23;;;;;;;7.07;2.30;;;;;;;;;;4895208;29;20388;-68
2022/07/20 10:02:52;;;;;;;4.45;1.98;;;;;;;;;;4876899;29;20073;-73
2022/07/20 10:05:21;;;;;;;4.25;2.10;;;;;;;;;;4892360;29;20593;-67
2022/07/20 10:07:47;;;;;;;3.25;1.95;;;;;;;;;;4892049;29;20055;-66
2022/07/20 10:10:14;;;;;;;4.35;2.30;;;;;;;;;;4887180;29;20045;-68
2022/07/20 10:12:40;;;;;;;3.90;1.75;;;;;;;;;;4888320;29;20124;-68
2022/07/20 10:15:11;;;;;;;4.75;1.70;;;;;;;;;;4895501;29;20127;-66
2022/07/20 10:17:39;;;;;;;5.63;1.77;;;;;;;;;;4886631;29;20080;-71
2022/07/20 10:20:27;;;;;;;6.43;2.20;;;;;;;;;;4887937;29;20598;-69
2022/07/20 10:23:26;;;;;;;10.13;2.58;;;;;;;;;;4871191;29;20440;-72
2022/07/20 10:25:54;;;;;;;4.82;1.95;;;;;;;;;;4851437;29;20056;-72
2022/07/20 10:28:24;;;;;;;8.60;2.30;;;;;;;;;;4893151;29;20075;-69
2022/07/20 10:30:55;;;;;;;4.95;2.00;;;;;;;;;;4882904;29;20336;-70
2022/07/20 10:33:23;;;;;;;8.05;1.70;;;;;;;;;;4893225;29;20059;-71
2022/07/20 10:35:50;;;;;;;2.40;1.67;;;;;;;;;;4877887;29;20530;-74
2022/07/20 10:38:20;;;;;;;5.35;2.03;;;;;;;;;;4896275;29;20085;-70
2022/07/20 10:44:28;;;;;;;4.43;1.80;;;;;;;;;;4893969;29;20060;-67
2022/07/20 10:46:54;;;;;;;7.30;2.05;;;;;;;;;;4854458;29;20509;-68
2022/07/20 10:50:00;;;;;;;7.93;2.10;;;;;;;;;;4890709;29;20052;-70
2022/07/20 10:52:28;;;;;;;4.68;2.15;;;;;;;;;;4887617;29;20048;-68
2022/07/20 10:54:54;;;;;;;5.10;2.15;;;;;;;;;;4885758;29;20056;-71
2022/07/20 10:57:21;;;;;;;4.32;2.13;;;;;;;;;;4889019;29;20049;-71
2022/07/20 11:00:10;;;;;;;4.60;2.08;;;;;;;;;;4894245;29;20562;-71
2022/07/20 11:02:37;;;;;;;8.05;2.28;;;;;;;;;;4895765;29;20558;-69
2022/07/20 11:05:04;;;;;;;6.47;2.20;;;;;;;;;;4894989;29;20072;-71
2022/07/20 11:07:31;;;;;;;5.13;2.10;;;;;;;;;;4877150;29;20368;-71
2022/07/20 11:10:18;;;;;;;5.53;2.10;;;;;;;;;;4892910;29;20491;-70
2022/07/20 11:12:57;;;;;;;6.68;2.25;;;;;;;;;;4889186;29;20060;-71
2022/07/20 11:15:23;;;;;;;4.60;2.20;;;;;;;;;;4886412;29;20045;-72
2022/07/20 11:17:53;;;;;;;4.88;2.13;;;;;;;;;;4880936;29;20123;-70
2022/07/20 11:20:19;;;;;;;5.28;2.10;;;;;;;;;;4876952;29;20155;-71
2022/07/20 11:22:45;;;;;;;4.35;2.10;;;;;;;;;;4888367;29;20571;-68
2022/07/20 11:25:11;;;;;;;4.95;1.98;;;;;;;;;;4888541;29;20100;-68
2022/07/20 11:27:37;;;;;;;4.18;2.20;;;;;;;;;;4889428;29;20151;-69
2022/07/20 11:30:03;;;;;;;5.25;2.30;;;;;;;;;;4888003;29;20048;-68
2022/07/20 11:32:29;;;;;;;4.57;2.22;;;;;;;;;;4892191;29;20055;-70
2022/07/20 11:34:55;;;;;;;6.15;2.00;;;;;;;;;;4895350;29;20059;-68
2022/07/20 11:37:21;;;;;;;4.88;2.10;;;;;;;;;;4895758;29;20067;-71
2022/07/20 11:39:48;;;;;;;7.40;2.70;;;;;;;;;;4894892;29;20052;-70
2022/07/20 11:42:16;;;;;;;4.53;2.58;;;;;;;;;;4891982;29;20257;-67
2022/07/20 11:44:59;;;;;;;5.32;2.20;;;;;;;;;;4883434;29;20053;-67
2022/07/20 11:47:25;;;;;;;3.55;2.13;;;;;;;;;;4893754;29;20053;-70
2022/07/20 11:50:05;;;;;;;4.80;1.83;;;;;;;;;;4890319;29;20051;-69
2022/07/20 11:52:42;;;;;;;6.53;2.25;;;;;;;;;;4879551;29;20048;-69
2022/07/20 11:55:08;;;;;;;9.50;2.00;;;;;;;;;;4880514;29;20088;-68
2022/07/20 11:57:35;;;;;;;6.65;2.00;;;;;;;;;;4890586;29;20529;-67
2022/07/20 12:00:01;;;;;;;5.30;2.05;;;;;;;;;;4889495;29;20045;-66
2022/07/20 12:02:27;;;;;;;8.02;1.90;;;;;;;;;;4881900;29;20044;-67
2022/07/20 12:04:53;;;;;;;7.68;2.28;;;;;;;;;;4890401;29;20124;-66
2022/07/20 12:10:32;;;;;;;4.43;2.80;;;;;;;;;;4887175;29;20119;-68
2022/07/20 12:13:05;;;;;;;5.30;2.55;;;;;;;;;;4891708;29;20060;-67
2022/07/20 12:15:32;;;;;;;5.90;2.25;;;;;;;;;;4885151;29;20059;-67
2022/07/20 12:17:58;;;;;;;7.72;2.33;;;;;;;;;;4892570;29;20100;-67
2022/07/20 12:20:25;;;;;;;3.85;2.50;;;;;;;;;;4888694;29;20048;-68
2022/07/20 12:22:57;;;;;;;4.43;2.50;;;;;;;;;;4892244;29;20382;-66
2022/07/20 12:25:37;;;;;;;4.40;2.40;;;;;;;;;;4894107;29;20063;-70
2022/07/20 12:28:03;;;;;;;9.80;2.53;;;;;;;;;;4890157;29;20073;-66
2022/07/20 12:30:34;;;;;;;4.38;2.50;;;;;;;;;;4892787;29;20132;-67
2022/07/20 12:33:07;;;;;;;5.25;2.58;;;;;;;;;;4891916;29;20124;-68
2022/07/20 12:35:36;;;;;;;4.75;2.38;;;;;;;;;;4893216;29;20131;-71
2022/07/20 12:38:02;;;;;;;6.38;1.95;;;;;;;;;;4884824;29;20052;-70
2022/07/20 12:40:52;;;;;;;5.30;1.50;;;;;;;;;;4891668;29;20065;-68
2022/07/20 12:43:41;;;;;;;5.13;2.03;;;;;;;;;;4885775;29;20072;-68
2022/07/20 12:46:13;;;;;;;5.68;2.20;;;;;;;;;;4893505;29;20045;-69
2022/07/20 12:48:42;;;;;;;5.68;2.17;;;;;;;;;;4889074;29;20123;-69
2022/07/20 12:51:10;;;;;;;5.93;1.88;;;;;;;;;;4893538;29;20111;-69
2022/07/20 12:53:37;;;;;;;3.92;1.80;;;;;;;;;;4896135;29;20077;-68
2022/07/20 12:56:05;;;;;;;4.25;2.10;;;;;;;;;;4895146;29;20044;-69
2022/07/20 12:58:31;;;;;;;5.05;1.77;;;;;;;;;;4894697;29;20061;-70
2022/07/20 13:00:57;;;;;;;3.42;1.80;;;;;;;;;;4894817;29;20052;-70
2022/07/20 13:03:23;;;;;;;5.72;2.20;;;;;;;;;;4896974;29;20048;-69
2022/07/20 13:05:50;;;;;;;3.50;2.08;;;;;;;;;;4893135;29;20044;-67
2022/07/20 13:08:16;;;;;;;3.60;1.90;;;;;;;;;;4889005;29;20521;-67
2022/07/20 13:10:43;;;;;;;4.10;1.98;;;;;;;;;;4894134;29;20391;-67
2022/07/20 13:13:09;;;;;;;5.47;2.10;;;;;;;;;;4895991;29;20494;-69
2022/07/20 13:15:35;;;;;;;3.70;1.90;;;;;;;;;;4895601;29;20064;-66
2022/07/20 13:18:02;;;;;;;5.18;2.00;;;;;;;;;;4895156;29;20063;-67
2022/07/20 13:20:28;;;;;;;4.32;2.20;;;;;;;;;;4893204;29;20049;-67
2022/07/20 13:22:54;;;;;;;5.38;2.17;;;;;;;;;;4895786;29;20052;-71
2022/07/20 13:25:22;;;;;;;5.05;2.10;;;;;;;;;;4896201;29;20048;-68
2022/07/20 13:27:48;;;;;;;4.93;2.00;;;;;;;;;;4885856;29;20051;-69
2022/07/20 13:30:14;;;;;;;3.80;2.00;;;;;;;;;;4890999;29;20048;-68
2022/07/20 13:32:43;;;;;;;5.45;1.98;;;;;;;;;;4895510;29;20546;-70
2022/07/20 13:35:10;;;;;;;5.28;2.08;;;;;;;;;;4892303;29;20418;-69
2022/07/20 13:37:38;;;;;;;3.67;2.33;;;;;;;;;;4879188;29;20084;-70
2022/07/20 13:40:05;;;;;;;4.07;2.25;;;;;;;;;;4893502;29;20407;-72
2022/07/20 13:42:31;;;;;;;7.85;2.15;;;;;;;;;;4890266;29;20423;-72
2022/07/20 13:44:57;;;;;;;5.68;2.10;;;;;;;;;;4894769;29;20045;-68
2022/07/20 13:47:23;;;;;;;7.32;1.92;;;;;;;;;;4888164;29;20503;-66
2022/07/20 13:49:49;;;;;;;5.10;2.20;;;;;;;;;;4888841;29;20055;-69
2022/07/20 13:52:17;;;;;;;5.10;2.00;;;;;;;;;;4886814;29;20570;-69
2022/07/20 13:54:43;;;;;;;6.18;1.90;;;;;;;;;;4891391;29;20435;-70
2022/07/20 13:57:09;;;;;;;3.85;2.10;;;;;;;;;;4886843;29;20048;-67
2022/07/20 13:59:35;;;;;;;6.15;2.00;;;;;;;;;;4890727;29;20416;-66
2022/07/20 14:02:01;;;;;;;7.00;1.92;;;;;;;;;;4888427;29;20503;-70
2022/07/20 14:04:27;;;;;;;6.30;2.47;;;;;;;;;;4894623;29;20060;-70
2022/07/20 14:06:52;;;;;;;5.32;2.20;;;;;;;;;;4894531;29;20052;-67
2022/07/20 14:09:19;;;;;;;5.97;2.20;;;;;;;;;;4892936;29;20064;-66
2022/07/20 14:11:45;;;;;;;4.18;2.20;;;;;;;;;;4889959;29;20485;-69
2022/07/20 14:14:10;;;;;;;3.83;1.90;;;;;;;;;;4877719;29;20068;-68
2022/07/20 14:16:38;;;;;;;3.50;1.88;;;;;;;;;;4893864;29;20041;-67
2022/07/20 14:19:04;;;;;;;4.40;1.83;;;;;;;;;;4891320;29;20575;-68
2022/07/20 14:21:30;;;;;;;9.25;1.92;;;;;;;;;;4896651;29;20057;-69
2022/07/20 14:23:56;;;;;;;5.63;1.85;;;;;;;;;;4896543;29;20055;-70
2022/07/20 14:26:22;;;;;;;4.82;1.67;;;;;;;;;;4892024;29;20467;-70
2022/07/20 14:28:48;;;;;;;4.35;1.90;;;;;;;;;;4882730;29;20059;-66
2022/07/20 14:31:14;;;;;;;4.80;1.80;;;;;;;;;;4889100;29;20059;-67
2022/07/20 14:33:41;;;;;;;6.53;1.80;;;;;;;;;;4886817;29;20041;-68
2022/07/20 14:36:06;;;;;;;2.47;1.70;;;;;;;;;;4887170;29;20053;-70
2022/07/20 14:38:33;;;;;;;4.85;1.77;;;;;;;;;;4893511;29;20116;-67
2022/07/20 14:40:58;;;;;;;5.63;1.70;;;;;;;;;;4887956;29;20086;-70
2022/07/20 14:43:24;;;;;;;4.25;1.70;;;;;;;;;;4888064;29;20072;-69
2022/07/20 14:45:50;;;;;;;2.50;1.40;;;;;;;;;;4894812;29;20045;-70
2022/07/20 14:48:16;;;;;;;4.07;1.80;;;;;;;;;;4892664;29;20060;-70
2022/07/20 14:50:43;;;;;;;3.67;1.75;;;;;;;;;;4895655;29;20048;-68